Pagrindinis puslapis
METAR-TAF:

METAR-TAF

Oro uostai :

Niurnbergas, Vokietija

platuma: 49-30N, ilguma: 011-03E, Aukštis: 318 m

Dabartinis oras

Ataskaita buvo paskelbta 32 minutes, ne 09:50 UTC
Vėjas 4 kt nuo kintamojo kryptimis
Temperatūra 15°C
Drėgmė 41%
Slėgis 1029 hPa
Matomumas 10 km arba daugiau
Mažai debesys ne aukštis 4000 ft

METAR: EDDN 200950Z VRB04KT 9999 FEW040 15/02 Q1029 NOSIG

Laikas: 12:22 (10:22 UTC)

Prognozė

Ataskaita buvo paskelbta 5 valandos ir 22 minutes, ne 05:00 UTC
Prognozė galioja nuo 20 metu 06 UTC su 21 metu 06 UTC
Vėjas 3 kt nuo kintamojo kryptimis
Matomumas 10 km arba daugiau
nėra debesų žemiau 1500 m ir nėra kamuolinių lietaus debesų
Tapsmas
nuo 20 metu 06 UTC su 20 metu 09 UTC
Vėjas 5 kt iš Rytų
Tapsmas
nuo 20 metu 16 UTC su 20 metu 18 UTC
Vėjas 3 kt nuo kintamojo kryptimis

TAF: EDDN 200500Z 2006/2106 VRB03KT CAVOK BECMG 2006/2009 09005KT BECMG 2016/2018 VRB03KT

Orai ataskaitas ir orų prognozės (METAR, TAF).

turimą stotys yra geltonos ir raudonos taškus žemėlapyje.

Perkelti pele per norėdami pamatyti stoties vardą.

Tada spustelėkite, norėdami matyti oro stebėjimo ir prognozės.

Norėdami pakeisti žemėlapį: spustelėkite ant žalios mygtukų su juodo kryžiaus žemyn,; žalią mygtuką su brūkšneliu, jei norite nutolinti; arba žalių rodyklių gretimoms žemėlapius.


METAR-TAF: